createdAt,value
2022-12-17T00:00:00.634Z,95577.88
2022-12-17T00:02:46.078Z,95578.38
2022-12-17T00:05:31.394Z,95584.81
2022-12-17T00:08:17.422Z,95588.50
2022-12-17T00:11:02.635Z,95585.53
2022-12-17T00:13:48.877Z,95602.22
2022-12-17T00:16:34.554Z,95597.34
2022-12-17T00:19:19.519Z,95607.84
2022-12-17T00:22:04.415Z,95614.16
2022-12-17T00:24:49.397Z,95611.41
2022-12-17T00:27:34.521Z,95608.66
2022-12-17T00:30:19.730Z,95607.59
2022-12-17T00:33:04.882Z,95613.16
2022-12-17T00:35:49.759Z,95616.13
2022-12-17T00:38:35.221Z,95618.16
2022-12-17T00:41:20.613Z,95631.06
2022-12-17T00:44:05.459Z,95633.81
2022-12-17T00:46:50.567Z,95628.69
2022-12-17T00:49:35.633Z,95636.56
2022-12-17T00:52:23.644Z,95641.53
2022-12-17T00:55:08.600Z,95640.00
2022-12-17T00:57:53.498Z,95650.72
2022-12-17T01:00:38.539Z,95654.56
2022-12-17T01:03:28.221Z,95655.13
2022-12-17T01:06:13.655Z,95649.53
2022-12-17T01:08:59.063Z,95651.34
2022-12-17T01:11:44.036Z,95650.22
2022-12-17T01:14:28.923Z,95648.72
2022-12-17T01:17:14.120Z,95650.84
2022-12-17T01:19:59.000Z,95651.94
2022-12-17T01:22:43.913Z,95650.34
2022-12-17T01:25:29.160Z,95640.25
2022-12-17T01:28:14.239Z,95652.75
2022-12-17T01:30:59.336Z,95660.63
2022-12-17T01:33:44.301Z,95664.53
2022-12-17T01:36:29.517Z,95667.53
2022-12-17T01:39:14.421Z,95661.91
2022-12-17T01:41:59.887Z,95667.63
2022-12-17T01:45:03.797Z,95682.28
2022-12-17T01:47:52.649Z,95695.78
2022-12-17T01:50:42.852Z,95711.63
2022-12-17T01:53:28.408Z,95703.28
2022-12-17T01:56:13.557Z,95711.16
2022-12-17T01:58:59.251Z,95707.91
2022-12-17T02:01:44.719Z,95712.19
2022-12-17T02:04:30.036Z,95714.13
2022-12-17T02:07:26.217Z,95716.63
2022-12-17T02:10:22.916Z,95729.97
2022-12-17T02:13:11.557Z,95727.44
2022-12-17T02:16:03.251Z,95724.84
2022-12-17T02:18:51.731Z,95732.81
2022-12-17T02:21:38.421Z,95726.16
2022-12-17T02:25:08.661Z,95731.88
2022-12-17T02:27:54.373Z,95732.94
2022-12-17T02:30:39.768Z,95743.53
2022-12-17T02:33:25.712Z,95749.97
2022-12-17T02:36:17.719Z,95747.22
2022-12-17T02:39:02.594Z,95755.34
2022-12-17T02:41:48.596Z,95761.44
2022-12-17T02:44:34.486Z,95760.72
2022-12-17T02:47:21.693Z,95768.13
2022-12-17T02:50:06.913Z,95771.19
2022-12-17T02:52:52.461Z,95770.63
2022-12-17T02:55:37.450Z,95771.94
2022-12-17T02:58:22.279Z,95774.19
2022-12-17T03:01:07.604Z,95780.25
2022-12-17T03:03:52.531Z,95791.56
2022-12-17T03:06:37.408Z,95792.75
2022-12-17T03:09:22.276Z,95800.41
2022-12-17T03:12:07.192Z,95806.94
2022-12-17T03:14:52.335Z,95807.66
2022-12-17T03:17:37.238Z,95815.53
2022-12-17T03:20:22.486Z,95820.41
2022-12-17T03:23:07.244Z,95823.75
2022-12-17T03:25:52.374Z,95827.81
2022-12-17T03:28:37.321Z,95836.63
2022-12-17T03:31:22.286Z,95836.03
2022-12-17T03:34:07.210Z,95839.00
2022-12-17T03:36:52.250Z,95847.72
2022-12-17T03:39:37.129Z,95852.47
2022-12-17T03:42:22.035Z,95857.22
2022-12-17T03:45:07.091Z,95854.47
2022-12-17T03:47:52.050Z,95862.00
2022-12-17T03:50:56.888Z,95868.69
2022-12-17T03:53:42.127Z,95877.06
2022-12-17T03:56:27.454Z,95876.19
2022-12-17T03:59:12.522Z,95880.75
2022-12-17T04:01:57.444Z,95880.84
2022-12-17T04:04:42.836Z,95890.84
2022-12-17T04:07:27.818Z,95896.81
2022-12-17T04:10:12.717Z,95898.59
2022-12-17T04:12:57.795Z,95905.41
2022-12-17T04:15:42.747Z,95912.31
2022-12-17T04:18:27.849Z,95905.41
2022-12-17T04:21:12.992Z,95913.38
2022-12-17T04:23:57.972Z,95910.66
2022-12-17T04:26:43.119Z,95914.69
2022-12-17T04:29:47.831Z,95923.41
2022-12-17T04:32:35.398Z,95921.63
2022-12-17T04:35:20.762Z,95927.81
2022-12-17T04:38:06.196Z,95926.13
2022-12-17T04:40:51.043Z,95931.38
2022-12-17T04:43:36.312Z,95932.13
2022-12-17T04:46:21.653Z,95943.53
2022-12-17T04:49:06.651Z,95930.25
2022-12-17T04:51:51.712Z,95939.06
2022-12-17T04:54:36.661Z,95944.03
2022-12-17T04:57:21.981Z,95948.56
2022-12-17T05:00:07.195Z,95942.94
2022-12-17T05:02:52.277Z,95947.94
2022-12-17T05:05:37.357Z,95951.41
2022-12-17T05:08:22.767Z,95956.78
2022-12-17T05:11:07.967Z,95971.66
2022-12-17T05:13:53.000Z,95970.72
2022-12-17T05:16:37.815Z,95975.84
2022-12-17T05:19:22.849Z,95989.81
2022-12-17T05:22:07.720Z,95990.19
2022-12-17T05:24:52.720Z,95996.50
2022-12-17T05:27:37.967Z,96001.00
2022-12-17T05:30:23.406Z,96001.94
2022-12-17T05:33:16.375Z,96005.63
2022-12-17T05:36:01.334Z,96010.03
2022-12-17T05:38:46.396Z,96008.16
2022-12-17T05:41:31.300Z,96011.84
2022-12-17T05:44:16.208Z,96020.75
2022-12-17T05:47:01.285Z,96033.38
2022-12-17T05:49:46.248Z,96036.72
2022-12-17T05:52:31.168Z,96041.97
2022-12-17T05:55:16.249Z,96044.13
2022-12-17T05:58:01.081Z,96051.88
2022-12-17T06:00:46.373Z,96067.97
2022-12-17T06:03:31.375Z,96073.31
2022-12-17T06:06:16.400Z,96070.06
2022-12-17T06:09:01.431Z,96065.66
2022-12-17T06:11:46.352Z,96078.75
2022-12-17T06:14:48.193Z,96072.25
2022-12-17T06:17:33.330Z,96067.84
2022-12-17T06:20:18.395Z,96073.63
2022-12-17T06:23:03.436Z,96086.63
2022-12-17T06:25:48.522Z,96087.25
2022-12-17T06:28:33.450Z,96075.94
2022-12-17T06:31:18.582Z,96086.75
2022-12-17T06:34:03.572Z,96084.75
2022-12-17T06:36:48.689Z,96096.28
2022-12-17T06:39:33.571Z,96101.31
2022-12-17T06:42:18.798Z,96103.63
2022-12-17T06:45:03.780Z,96114.09
2022-12-17T06:47:48.677Z,96123.03
2022-12-17T06:50:33.649Z,96122.09
2022-12-17T06:53:19.741Z,96129.31
2022-12-17T06:56:04.820Z,96140.44
2022-12-17T06:58:49.871Z,96148.31
2022-12-17T07:01:35.030Z,96155.53
2022-12-17T07:04:20.488Z,96170.22
2022-12-17T07:07:05.454Z,96173.25
2022-12-17T07:09:50.553Z,96163.06
2022-12-17T07:12:35.476Z,96170.94
2022-12-17T07:15:20.570Z,96167.16
2022-12-17T07:18:15.805Z,96177.88
2022-12-17T07:21:01.392Z,96188.75
2022-12-17T07:23:46.774Z,96188.63
2022-12-17T07:26:32.318Z,96193.88
2022-12-17T07:29:17.319Z,96191.25
2022-12-17T07:32:02.439Z,96193.88
2022-12-17T07:34:47.698Z,96186.13
2022-12-17T07:37:32.673Z,96192.84
2022-12-17T07:40:17.723Z,96212.53
2022-12-17T07:43:02.651Z,96221.69
2022-12-17T07:45:48.104Z,96224.19
2022-12-17T07:48:33.166Z,96225.06
2022-12-17T07:51:18.401Z,96228.50
2022-12-17T07:54:04.008Z,96222.84
2022-12-17T07:56:48.992Z,96230.06
2022-12-17T07:59:37.077Z,96244.13
2022-12-17T08:02:22.198Z,96242.25
2022-12-17T08:05:07.495Z,96261.66
2022-12-17T08:07:52.733Z,96266.69
2022-12-17T08:10:54.727Z,96268.59
2022-12-17T08:13:39.877Z,96277.50
2022-12-17T08:16:25.395Z,96272.16
2022-12-17T08:19:10.570Z,96274.78
2022-12-17T08:21:55.461Z,96282.41
2022-12-17T08:24:40.277Z,96283.25
2022-12-17T08:27:25.488Z,96286.50
2022-12-17T08:30:10.631Z,96297.00
2022-12-17T08:32:55.600Z,96309.69
2022-12-17T08:35:40.481Z,96306.44
2022-12-17T08:38:25.886Z,96316.75
2022-12-17T08:41:10.816Z,96311.28
2022-12-17T08:43:55.930Z,96321.13
2022-12-17T08:46:40.855Z,96323.44
2022-12-17T08:49:26.056Z,96348.81
2022-12-17T08:52:11.078Z,96365.19
2022-12-17T08:54:56.097Z,96358.25
2022-12-17T08:57:51.632Z,96371.19
2022-12-17T09:00:36.522Z,96381.75
2022-12-17T09:03:22.047Z,96372.53
2022-12-17T09:06:07.437Z,96380.28
2022-12-17T09:08:52.737Z,96388.28
2022-12-17T09:11:38.351Z,96394.56
2022-12-17T09:14:23.292Z,96393.34
2022-12-17T09:17:08.316Z,96400.88
2022-12-17T09:19:53.358Z,96403.38
2022-12-17T09:22:38.376Z,96405.78
2022-12-17T09:25:23.688Z,96402.13
2022-12-17T09:28:08.979Z,96400.97
2022-12-17T09:30:54.017Z,96394.38
2022-12-17T09:33:39.212Z,96397.59
2022-12-17T09:36:24.874Z,96409.69
2022-12-17T09:39:09.672Z,96400.03
2022-12-17T09:42:11.414Z,96418.00
2022-12-17T09:44:56.197Z,96419.03
2022-12-17T09:48:00.246Z,96424.72
2022-12-17T09:50:45.852Z,96420.50
2022-12-17T09:53:54.074Z,96430.06
2022-12-17T09:56:41.124Z,96420.47
2022-12-17T09:59:39.152Z,96419.22
2022-12-17T10:02:31.106Z,96428.47
2022-12-17T10:05:17.520Z,96432.56
2022-12-17T10:08:03.408Z,96433.00
2022-12-17T10:10:50.319Z,96431.53
2022-12-17T10:13:37.346Z,96438.97
2022-12-17T10:16:43.135Z,96465.75
2022-12-17T10:19:54.395Z,96462.59
2022-12-17T10:22:39.719Z,96482.13
2022-12-17T10:25:25.754Z,96484.63
2022-12-17T10:28:10.941Z,96472.13
2022-12-17T10:30:56.284Z,96468.91
2022-12-17T10:33:41.374Z,96474.34
2022-12-17T10:36:40.323Z,96480.66
2022-12-17T10:39:25.817Z,96485.47
2022-12-17T10:42:10.636Z,96483.78
2022-12-17T10:44:56.572Z,96485.59
2022-12-17T10:47:43.010Z,96472.88
2022-12-17T10:50:32.487Z,96486.09
2022-12-17T10:53:18.058Z,96478.84
2022-12-17T10:56:07.399Z,96489.25
2022-12-17T10:58:52.841Z,96493.22
2022-12-17T11:01:39.922Z,96490.09
2022-12-17T11:04:41.652Z,96481.47
2022-12-17T11:07:28.736Z,96493.44
2022-12-17T11:10:16.198Z,96497.19
2022-12-17T11:13:03.198Z,96493.63
2022-12-17T11:15:57.059Z,96487.63
2022-12-17T11:18:45.171Z,96496.97
2022-12-17T11:21:39.794Z,96512.84
2022-12-17T11:24:30.820Z,96509.69
2022-12-17T11:27:17.174Z,96517.69
2022-12-17T11:30:02.322Z,96517.59
2022-12-17T11:32:50.459Z,96522.56
2022-12-17T11:35:48.878Z,96518.66
2022-12-17T11:38:49.121Z,96521.94
2022-12-17T11:41:38.162Z,96518.66
2022-12-17T11:44:34.128Z,96518.25
2022-12-17T11:47:59.002Z,96525.78
2022-12-17T11:50:56.734Z,96529.06
2022-12-17T11:53:44.892Z,96528.75
2022-12-17T11:56:40.515Z,96534.59
2022-12-17T11:59:28.421Z,96540.72
2022-12-17T12:02:39.342Z,96532.69
2022-12-17T12:05:30.500Z,96538.56
2022-12-17T12:08:21.411Z,96542.88
2022-12-17T12:11:14.473Z,96545.28
2022-12-17T12:14:06.410Z,96547.34
2022-12-17T12:17:02.471Z,96551.13
2022-12-17T12:20:06.292Z,96551.50
2022-12-17T12:23:06.123Z,96545.44
2022-12-17T12:25:54.332Z,96547.22
2022-12-17T12:29:11.735Z,96544.16
2022-12-17T12:32:05.891Z,96536.41
2022-12-17T12:35:06.751Z,96548.06
2022-12-17T12:37:53.779Z,96541.44
2022-12-17T12:40:55.159Z,96545.00
2022-12-17T12:43:42.078Z,96547.81
2022-12-17T12:46:33.560Z,96549.91
2022-12-17T12:49:24.841Z,96555.34
2022-12-17T12:52:11.757Z,96556.94
2022-12-17T12:55:06.082Z,96573.50
2022-12-17T12:57:55.597Z,96573.50
2022-12-17T13:00:42.140Z,96583.78
2022-12-17T13:03:39.397Z,96580.72
2022-12-17T13:06:06.471Z,96583.63
2022-12-17T13:08:33.045Z,96580.38
2022-12-17T13:11:09.316Z,96588.44
2022-12-17T13:13:39.727Z,96597.31
2022-12-17T13:16:28.934Z,96597.44
2022-12-17T13:19:17.256Z,96609.97
2022-12-17T13:21:43.896Z,96613.94
2022-12-17T13:24:11.601Z,96621.91
2022-12-17T13:26:41.402Z,96628.06
2022-12-17T13:29:13.421Z,96630.78
2022-12-17T13:32:06.155Z,96634.25
2022-12-17T13:34:35.734Z,96639.56
2022-12-17T13:37:02.254Z,96646.03
2022-12-17T13:39:38.038Z,96653.13
2022-12-17T13:42:04.760Z,96656.06
2022-12-17T13:44:36.327Z,96648.00
2022-12-17T13:47:03.032Z,96664.00
2022-12-17T13:49:30.410Z,96671.88
2022-12-17T13:52:00.687Z,96670.44
2022-12-17T13:54:27.300Z,96676.06
2022-12-17T13:56:54.771Z,96673.56
2022-12-17T13:59:24.056Z,96675.97
2022-12-17T14:01:54.672Z,96677.09
2022-12-17T14:04:23.147Z,96681.75
2022-12-17T14:06:50.198Z,96685.59
2022-12-17T14:09:18.397Z,96690.00
2022-12-17T14:12:03.834Z,96696.06
2022-12-17T14:14:49.855Z,96705.13
2022-12-17T14:17:21.692Z,96707.19
2022-12-17T14:19:57.236Z,96714.03
2022-12-17T14:22:37.817Z,96717.56
2022-12-17T14:25:05.723Z,96726.94
2022-12-17T14:27:34.318Z,96724.69
2022-12-17T14:30:01.491Z,96727.66
2022-12-17T14:32:35.760Z,96740.25
2022-12-17T14:35:03.021Z,96748.19
2022-12-17T14:37:30.200Z,96750.91
2022-12-17T14:40:00.399Z,96756.06
2022-12-17T14:42:29.325Z,96756.31
2022-12-17T14:44:55.911Z,96756.06
2022-12-17T14:47:27.089Z,96768.38
2022-12-17T14:50:06.240Z,96771.53
2022-12-17T14:52:37.681Z,96772.69
2022-12-17T14:55:22.525Z,96785.88
2022-12-17T14:57:49.578Z,96790.88
2022-12-17T15:00:16.256Z,96795.84
2022-12-17T15:02:50.512Z,96801.84
2022-12-17T15:05:17.623Z,96813.09
2022-12-17T15:07:44.326Z,96818.56
2022-12-17T15:10:12.717Z,96821.19
2022-12-17T15:12:40.678Z,96827.06
2022-12-17T15:15:07.640Z,96829.09
2022-12-17T15:17:34.206Z,96828.91
2022-12-17T15:20:00.836Z,96841.22
2022-12-17T15:22:27.593Z,96845.09
2022-12-17T15:24:54.138Z,96846.00
2022-12-17T15:27:20.662Z,96855.38
2022-12-17T15:29:47.518Z,96845.00
2022-12-17T15:32:18.836Z,96859.00
2022-12-17T15:34:45.640Z,96865.16
2022-12-17T15:37:12.281Z,96856.94
2022-12-17T15:39:38.819Z,96875.41
2022-12-17T15:42:23.850Z,96867.66
2022-12-17T15:44:50.375Z,96869.75
2022-12-17T15:47:16.934Z,96870.91
2022-12-17T15:49:44.836Z,96871.91
2022-12-17T15:52:15.053Z,96874.06
2022-12-17T15:54:42.439Z,96886.13
2022-12-17T15:57:10.877Z,96886.97
2022-12-17T15:59:40.678Z,96891.38
2022-12-17T16:02:07.468Z,96892.41
2022-12-17T16:04:34.215Z,96895.19
2022-12-17T16:07:00.876Z,96906.63
2022-12-17T16:09:27.398Z,96913.72
2022-12-17T16:11:57.243Z,96905.97
2022-12-17T16:14:24.296Z,96915.00
2022-12-17T16:16:51.075Z,96926.41
2022-12-17T16:19:17.962Z,96924.84
2022-12-17T16:21:46.945Z,96921.69
2022-12-17T16:24:13.919Z,96933.06
2022-12-17T16:26:40.472Z,96938.41
2022-12-17T16:29:07.041Z,96944.03
2022-12-17T16:31:33.775Z,96947.72
2022-12-17T16:34:00.417Z,96944.16
2022-12-17T16:36:27.053Z,96943.31
2022-12-17T16:38:54.304Z,96960.28
2022-12-17T16:41:22.095Z,96963.09
2022-12-17T16:43:48.650Z,96965.78
2022-12-17T16:46:27.625Z,96964.88
2022-12-17T16:48:55.056Z,96971.00
2022-12-17T16:51:28.481Z,96968.53
2022-12-17T16:53:56.041Z,96968.66
2022-12-17T16:56:24.050Z,96969.94
2022-12-17T16:58:51.175Z,96972.00
2022-12-17T17:01:21.335Z,96977.22
2022-12-17T17:03:48.557Z,96984.13
2022-12-17T17:06:15.959Z,96991.19
2022-12-17T17:08:42.488Z,96995.56
2022-12-17T17:11:10.632Z,96997.59
2022-12-17T17:13:37.762Z,96998.50
2022-12-17T17:16:05.190Z,97011.63
2022-12-17T17:18:32.049Z,97018.69
2022-12-17T17:21:17.594Z,97018.63
2022-12-17T17:23:44.327Z,97019.44
2022-12-17T17:26:11.152Z,97028.34
2022-12-17T17:28:38.313Z,97027.97
2022-12-17T17:31:07.476Z,97035.84
2022-12-17T17:33:38.855Z,97037.53
2022-12-17T17:36:10.157Z,97046.16
2022-12-17T17:38:37.686Z,97051.16
2022-12-17T17:41:04.966Z,97054.63
2022-12-17T17:43:31.942Z,97060.25
2022-12-17T17:46:08.564Z,97063.91
2022-12-17T17:48:35.792Z,97063.91
2022-12-17T17:51:07.409Z,97070.09
2022-12-17T17:53:34.289Z,97078.00
2022-12-17T17:56:20.611Z,97085.16
2022-12-17T17:58:51.594Z,97077.34
2022-12-17T18:01:19.589Z,97073.19
2022-12-17T18:03:46.392Z,97093.16
2022-12-17T18:06:15.953Z,97093.25
2022-12-17T18:08:42.928Z,97093.16
2022-12-17T18:11:10.646Z,97103.59
2022-12-17T18:13:55.368Z,97096.72
2022-12-17T18:16:24.824Z,97102.97
2022-12-17T18:18:52.691Z,97110.19
2022-12-17T18:21:19.731Z,97113.34
2022-12-17T18:23:46.683Z,97109.31
2022-12-17T18:26:21.431Z,97113.00
2022-12-17T18:28:49.006Z,97119.72
2022-12-17T18:31:17.387Z,97121.50
2022-12-17T18:33:45.769Z,97130.03
2022-12-17T18:36:19.832Z,97126.59
2022-12-17T18:38:46.654Z,97131.13
2022-12-17T18:41:35.840Z,97138.81
2022-12-17T18:44:04.199Z,97138.81
2022-12-17T18:46:31.180Z,97141.63
2022-12-17T18:48:58.973Z,97143.25
2022-12-17T18:51:26.116Z,97152.88
2022-12-17T18:53:55.840Z,97156.66
2022-12-17T18:56:52.235Z,97165.50
2022-12-17T18:59:09.076Z,97165.72
2022-12-17T19:01:36.661Z,97174.69
2022-12-17T19:04:10.797Z,97170.63
2022-12-17T19:06:38.331Z,97169.78
2022-12-17T19:09:05.926Z,97178.31
2022-12-17T19:11:32.917Z,97181.00
2022-12-17T19:13:59.733Z,97185.31
2022-12-17T19:16:28.038Z,97185.34
2022-12-17T19:18:55.957Z,97183.59
2022-12-17T19:21:24.760Z,97190.53
2022-12-17T19:23:55.409Z,97198.28
2022-12-17T19:26:22.494Z,97191.28
2022-12-17T19:28:50.918Z,97199.22
2022-12-17T19:31:19.211Z,97195.88
2022-12-17T19:33:46.366Z,97196.84
2022-12-17T19:36:14.649Z,97195.25
2022-12-17T19:38:41.814Z,97192.59
2022-12-17T19:41:16.553Z,97202.91
2022-12-17T19:43:44.009Z,97205.75
2022-12-17T19:46:14.976Z,97211.00
2022-12-17T19:48:47.968Z,97207.66
2022-12-17T19:51:16.526Z,97212.09
2022-12-17T19:53:43.813Z,97212.19
2022-12-17T19:56:11.727Z,97214.75
2022-12-17T19:58:40.727Z,97213.06
2022-12-17T20:01:08.884Z,97218.38
2022-12-17T20:03:35.971Z,97221.88
2022-12-17T20:06:02.677Z,97226.34
2022-12-17T20:08:29.568Z,97231.56
2022-12-17T20:10:56.208Z,97226.41
2022-12-17T20:13:23.060Z,97236.00
2022-12-17T20:15:58.597Z,97238.72
2022-12-17T20:18:25.209Z,97241.34
2022-12-17T20:20:51.757Z,97241.41
2022-12-17T20:23:21.168Z,97251.03
2022-12-17T20:25:47.682Z,97255.38
2022-12-17T20:28:14.203Z,97252.81
2022-12-17T20:30:41.358Z,97255.47
2022-12-17T20:33:07.923Z,97254.72
2022-12-17T20:35:38.878Z,97258.34
2022-12-17T20:38:05.459Z,97266.22
2022-12-17T20:40:32.040Z,97266.34
2022-12-17T20:42:58.598Z,97276.94
2022-12-17T20:45:25.128Z,97274.28
2022-12-17T20:47:53.236Z,97278.81
2022-12-17T20:50:19.768Z,97282.31
2022-12-17T20:52:46.352Z,97276.41
2022-12-17T20:55:12.873Z,97286.13
2022-12-17T20:57:39.456Z,97289.66
2022-12-17T21:00:06.383Z,97290.63
2022-12-17T21:02:33.077Z,97298.41
2022-12-17T21:05:00.272Z,97294.13
2022-12-17T21:07:26.813Z,97297.63
2022-12-17T21:09:53.580Z,97294.28
2022-12-17T21:12:20.157Z,97292.56
2022-12-17T21:14:46.726Z,97303.91
2022-12-17T21:17:14.891Z,97303.03
2022-12-17T21:19:41.531Z,97303.13
2022-12-17T21:22:08.915Z,97310.03
2022-12-17T21:24:37.232Z,97304.13
2022-12-17T21:27:03.760Z,97305.25
2022-12-17T21:29:30.332Z,97315.59
2022-12-17T21:31:56.917Z,97307.03
2022-12-17T21:34:25.207Z,97309.72
2022-12-17T21:36:52.257Z,97308.78
2022-12-17T21:39:18.964Z,97314.06
2022-12-17T21:42:08.136Z,97328.00
2022-12-17T21:44:35.318Z,97330.59
2022-12-17T21:47:02.388Z,97328.66
2022-12-17T21:49:29.012Z,97336.44
2022-12-17T21:51:59.282Z,97336.47
2022-12-17T21:54:26.090Z,97345.03
2022-12-17T21:56:52.688Z,97346.75
2022-12-17T21:59:19.300Z,97348.53
2022-12-17T22:01:45.950Z,97353.06
2022-12-17T22:04:12.731Z,97353.22
2022-12-17T22:06:43.005Z,97349.03
2022-12-17T22:09:13.393Z,97359.44
2022-12-17T22:12:19.409Z,97365.56
2022-12-17T22:14:46.996Z,97362.13
2022-12-17T22:17:13.557Z,97364.78
2022-12-17T22:19:40.160Z,97364.00
2022-12-17T22:22:06.924Z,97366.66
2022-12-17T22:24:36.022Z,97365.84
2022-12-17T22:27:03.319Z,97369.31
2022-12-17T22:29:48.352Z,97371.97
2022-12-17T22:32:33.212Z,97370.25
2022-12-17T22:36:07.192Z,97368.50
2022-12-17T22:39:52.882Z,97363.19
2022-12-17T22:44:38.322Z,97371.09
2022-12-17T22:44:46.300Z,97377.22
2022-12-17T22:46:19.650Z,97373.88
2022-12-17T22:48:46.703Z,97379.97
2022-12-17T22:51:18.529Z,97386.16
2022-12-17T22:53:54.495Z,97378.47
2022-12-17T22:56:50.635Z,97387.19
2022-12-17T22:59:09.712Z,97391.66
2022-12-17T23:01:36.334Z,97390.78
2022-12-17T23:04:03.852Z,97398.63
2022-12-17T23:06:30.499Z,97400.47
2022-12-17T23:08:57.677Z,97395.25
2022-12-17T23:11:25.515Z,97397.91
2022-12-17T23:13:52.515Z,97396.28
2022-12-17T23:16:19.169Z,97398.81
2022-12-17T23:18:46.489Z,97404.00
2022-12-17T23:21:15.618Z,97399.56
2022-12-17T23:23:42.533Z,97398.78
2022-12-17T23:26:10.448Z,97403.09
2022-12-17T23:28:37.037Z,97396.13
2022-12-17T23:31:11.551Z,97403.97
2022-12-17T23:33:39.030Z,97400.53
2022-12-17T23:36:07.258Z,97400.66
2022-12-17T23:38:34.262Z,97411.09
2022-12-17T23:41:04.732Z,97415.56
2022-12-17T23:43:31.277Z,97416.44
2022-12-17T23:45:57.833Z,97416.56
2022-12-17T23:48:24.371Z,97416.78
2022-12-17T23:50:50.912Z,97420.50
2022-12-17T23:53:17.424Z,97415.34
2022-12-17T23:55:43.919Z,97423.19
2022-12-17T23:58:10.428Z,97421.47
